Météo Nord-Pas-de-Calais   La météo au plus près de chez vous

Station météorologique

Observations météo à Blecourt (52055)

52055001 348 m Dernier relevé à 17:12
29.5°C
Humidité 33 % Vent 22.7 km/h

Journée consultée

Vendredi 4 Septembre 2026

Synthèse de la journée

Périodes de référence en UTC

Température maximale

30.2°C

à 17:00

06h 06h

Température minimale

16.6°C

à 07:06

18h 18h

Rafale maximale

45 km/h

à 15:54

00h 00h

Précipitations

0 mm

Cumul quotidien

06h 06h

Graphiques de la journée

Heure locale Réduire

Données détaillées

Relevés météo

Pas de 6 minutes Afficher les relevés infra-horaires
Relevés météo détaillés à Blecourt pour le Vendredi 4 Septembre 2026
Heure Température °C Point de rosée °C Humidité % Vent moyen (raf.), km/h Précipitations mm
17:12 29.5 °C 11.1 °C 32 % 26 km/h (37 km/h) 0 mm0 mm
17:06 29.7 °C 11.2 °C 32 % 24 km/h (36 km/h) 0 mm0 mm
17:00 29.5 °C 11.5 °C 33 % 26 km/h (37 km/h) 0 mm0 mm
16:54 29.7 °C 10.8 °C 31 % 25 km/h (38 km/h) 0 mm0 mm
16:48 29.9 °C 11.4 °C 32 % 26 km/h (40 km/h) 0 mm0 mm
16:42 29.9 °C 10.9 °C 31 % 28 km/h (40 km/h) 0 mm0 mm
16:36 29.9 °C 11.4 °C 32 % 26 km/h (40 km/h) 0 mm0 mm
16:30 29.9 °C 10.9 °C 31 % 24 km/h (36 km/h) 0 mm0 mm
16:24 29.6 °C 11.2 °C 32 % 24 km/h (36 km/h) 0 mm0 mm
16:18 29.8 °C 11.3 °C 32 % 22 km/h (34 km/h) 0 mm0 mm
16:12 29.5 °C 11.5 °C 33 % 23 km/h (31 km/h) 0 mm0 mm
16:06 29.4 °C 11.9 °C 34 % 25 km/h (38 km/h) 0 mm0 mm
16:00 29.3 °C 11.4 °C 33 % 30 km/h (45 km/h) 0 mm0 mm
15:54 29.9 °C 11.9 °C 33 % 24 km/h (45 km/h) 0 mm0 mm
15:48 29.6 °C 12.1 °C 34 % 21 km/h (34 km/h) 0 mm0 mm
15:42 29.4 °C 11.9 °C 34 % 24 km/h (34 km/h) 0 mm0 mm
15:36 29.3 °C 12.3 °C 35 % 23 km/h (36 km/h) 0 mm0 mm
15:30 29.4 °C 11.9 °C 34 % 23 km/h (40 km/h) 0 mm0 mm
15:24 29.3 °C 12.3 °C 35 % 27 km/h (40 km/h) 0 mm0 mm
15:18 29.2 °C 11.3 °C 33 % 26 km/h (37 km/h) 0 mm0 mm
15:12 29.4 °C 11.4 °C 33 % 23 km/h (36 km/h) 0 mm0 mm
15:06 29.4 °C 12.3 °C 35 % 24 km/h (37 km/h) 0 mm0 mm
15:00 29.3 °C 12.3 °C 35 % 25 km/h (42 km/h) 0 mm0 mm
14:54 29.4 °C 11.9 °C 34 % 25 km/h (42 km/h) 0 mm0 mm
14:48 29.9 °C 12.3 °C 34 % 23 km/h (32 km/h) 0 mm0 mm
14:42 29.6 °C 12.1 °C 34 % 26 km/h (42 km/h) 0 mm0 mm
14:36 29.1 °C 12.1 °C 35 % 29 km/h (42 km/h) 0 mm0 mm
14:30 29.1 °C 12.1 °C 35 % 30 km/h (40 km/h) 0 mm0 mm
14:24 29.1 °C 12.1 °C 35 % 28 km/h (40 km/h) 0 mm0 mm
14:18 29.1 °C 12.5 °C 36 % 26 km/h (40 km/h) 0 mm0 mm
14:12 29.1 °C 13.3 °C 38 % 24 km/h (34 km/h) 0 mm0 mm
14:06 28.9 °C 13.2 °C 38 % 21 km/h (33 km/h) 0 mm0 mm
14:00 28.8 °C 13.5 °C 39 % 22 km/h (36 km/h) 0 mm0 mm
13:54 28.8 °C 13.9 °C 40 % 24 km/h (37 km/h) 0 mm0 mm
13:48 28.3 °C 13.4 °C 40 % 23 km/h (36 km/h) 0 mm0 mm
13:42 28.3 °C 13.4 °C 40 % 23 km/h (36 km/h) 0 mm0 mm
13:36 28.2 °C 13.3 °C 40 % 24 km/h (36 km/h) 0 mm0 mm
13:30 28.1 °C 13.6 °C 41 % 22 km/h (35 km/h) 0 mm0 mm
13:24 28.2 °C 14.1 °C 42 % 22 km/h (37 km/h) 0 mm0 mm
13:18 28.6 °C 14.8 °C 43 % 21 km/h (36 km/h) 0 mm0 mm
13:12 28 °C 14.3 °C 43 % 20 km/h (36 km/h) 0 mm0 mm
13:06 27.2 °C 13.9 °C 44 % 22 km/h (32 km/h) 0 mm0 mm
13:00 27.6 °C 14.2 °C 44 % 24 km/h (33 km/h) 0 mm0 mm
12:54 27.5 °C 14.2 °C 44 % 22 km/h (33 km/h) 0 mm0 mm
12:48 26.8 °C 13.9 °C 45 % 21 km/h (31 km/h) 0 mm0 mm
12:42 26.6 °C 14 °C 46 % 24 km/h (36 km/h) 0 mm0 mm
12:36 26.5 °C 13.9 °C 46 % 27 km/h (38 km/h) 0 mm0 mm
12:30 26.4 °C 13.5 °C 45 % 27 km/h (36 km/h) 0 mm0 mm
12:24 26.5 °C 14.3 °C 47 % 26 km/h (38 km/h) 0 mm0 mm
12:18 26.4 °C 14.2 °C 47 % 23 km/h (38 km/h) 0 mm0 mm
12:12 26 °C 14.5 °C 49 % 20 km/h (33 km/h) 0 mm0 mm
12:06 25.8 °C 14.6 °C 50 % 21 km/h (35 km/h) 0 mm0 mm
12:00 25.9 °C 14.7 °C 50 % 23 km/h (35 km/h) 0 mm0 mm
11:54 26 °C 15.1 °C 51 % 24 km/h (37 km/h) 0 mm0 mm
11:48 25.4 °C 14.5 °C 51 % 26 km/h (37 km/h) 0 mm0 mm
11:42 25.4 °C 14.5 °C 51 % 24 km/h (37 km/h) 0 mm0 mm
11:36 25.3 °C 15 °C 53 % 21 km/h (30 km/h) 0 mm0 mm
11:30 25.2 °C 15.2 °C 54 % 23 km/h (36 km/h) 0 mm0 mm
11:24 24.7 °C 14.8 °C 54 % 25 km/h (36 km/h) 0 mm0 mm
11:18 24.6 °C 15 °C 55 % 24 km/h (37 km/h) 0 mm0 mm
11:12 24.5 °C 14.9 °C 55 % 23 km/h (35 km/h) 0 mm0 mm
11:06 24.6 °C 15.2 °C 56 % 22 km/h (33 km/h) 0 mm0 mm
11:00 24.4 °C 15.3 °C 57 % 21 km/h (31 km/h) 0 mm0 mm
10:54 24.1 °C 15.3 °C 58 % 21 km/h (31 km/h) 0 mm0 mm
10:48 24 °C 15 °C 57 % 20 km/h (30 km/h) 0 mm0 mm
10:42 24 °C 15.2 °C 58 % 23 km/h (36 km/h) 0 mm0 mm
10:36 23.8 °C 15.3 °C 59 % 23 km/h (36 km/h) 0 mm0 mm
10:30 24 °C 15.5 °C 59 % 22 km/h (31 km/h) 0 mm0 mm
10:24 23.6 °C 15.4 °C 60 % 24 km/h (34 km/h) 0 mm0 mm
10:18 23.6 °C 15.1 °C 59 % 23 km/h (34 km/h) 0 mm0 mm
10:12 23.6 °C 15.4 °C 60 % 21 km/h (28 km/h) 0 mm0 mm
10:06 23.4 °C 15.4 °C 61 % 22 km/h (32 km/h) 0 mm0 mm
10:00 23.1 °C 15.2 °C 61 % 21 km/h (32 km/h) 0 mm0 mm
09:54 23 °C 15.3 °C 62 % 20 km/h (31 km/h) 0 mm0 mm
09:48 22.9 °C 15.2 °C 62 % 21 km/h (31 km/h) 0 mm0 mm
09:42 23 °C 15.8 °C 64 % 21 km/h (30 km/h) 0 mm0 mm
09:36 22.7 °C 15.3 °C 63 % 20 km/h (32 km/h) 0 mm0 mm
09:30 22.5 °C 15.1 °C 63 % 17 km/h (26 km/h) 0 mm0 mm
09:24 22.3 °C 15.6 °C 66 % 13 km/h (23 km/h) 0 mm0 mm
09:18 21.7 °C 15.3 °C 67 % 12 km/h (17 km/h) 0 mm0 mm
09:12 21.6 °C 15.4 °C 68 % 13 km/h (19 km/h) 0 mm0 mm
09:06 21.4 °C 15.5 °C 69 % 15 km/h (21 km/h) 0 mm0 mm
09:00 21.1 °C 15.4 °C 70 % 15 km/h (23 km/h) 0 mm0 mm
08:54 20.4 °C 15.2 °C 72 % 14 km/h (23 km/h) 0 mm0 mm
08:48 19.7 °C 15.1 °C 75 % 14 km/h (21 km/h) 0 mm0 mm
08:42 19.3 °C 14.8 °C 75 % 15 km/h (21 km/h) 0 mm0 mm
08:36 19.1 °C 14.8 °C 76 % 14 km/h (19 km/h) 0 mm0 mm
08:30 18.9 °C 14.8 °C 77 % 16 km/h (20 km/h) 0 mm0 mm
08:24 18.6 °C 14.7 °C 78 % 17 km/h (22 km/h) 0 mm0 mm
08:18 18.3 °C 14.4 °C 78 % 17 km/h (22 km/h) 0 mm0 mm
08:12 18.2 °C 14.5 °C 79 % 17 km/h (22 km/h) 0 mm0 mm
08:06 18.2 °C 14.5 °C 79 % 17 km/h (22 km/h) 0 mm0 mm
08:00 18.2 °C 14.5 °C 79 % 16 km/h (22 km/h) 0 mm0 mm
07:54 18.1 °C 14.6 °C 80 % 15 km/h (20 km/h) 0 mm0 mm
07:48 18 °C 14.5 °C 80 % 15 km/h (20 km/h) 0 mm0 mm
07:42 17.7 °C 14.6 °C 82 % 14 km/h (19 km/h) 0 mm0 mm
07:36 17.3 °C 14.6 °C 84 % 12 km/h (17 km/h) 0 mm0 mm
07:30 16.9 °C 14.4 °C 85 % 10 km/h (14 km/h) 0 mm0 mm
07:24 16.8 °C 14.1 °C 84 % 9 km/h (13 km/h) 0 mm0 mm
07:18 16.9 °C 14.4 °C 85 % 10 km/h (13 km/h) 0 mm0 mm
07:12 16.8 °C 14.3 °C 85 % 11 km/h (14 km/h) 0 mm0 mm
07:06 16.6 °C 14.1 °C 85 % 10 km/h (14 km/h) 0 mm0 mm
07:00 16.8 °C 14.1 °C 84 % 8 km/h (11 km/h) 0 mm0 mm
06:54 17 °C 14.3 °C 84 % 9 km/h (13 km/h) 0 mm0 mm
06:48 17.1 °C 14.2 °C 83 % 10 km/h (13 km/h) 0 mm0 mm
06:42 17.2 °C 14.3 °C 83 % 10 km/h (13 km/h) 0 mm0 mm
06:36 17.3 °C 14.4 °C 83 % 10 km/h (14 km/h) 0 mm0 mm
06:30 17.3 °C 14.2 °C 82 % 9 km/h (14 km/h) 0 mm0 mm
06:24 17.3 °C 14.2 °C 82 % 9 km/h (13 km/h) 0 mm0 mm
06:18 17.3 °C 14.2 °C 82 % 8 km/h (13 km/h) 0 mm0 mm
06:12 17.4 °C 14.3 °C 82 % 7 km/h (11 km/h) 0 mm0 mm
06:06 17.5 °C 14.2 °C 81 % 7 km/h (10 km/h) 0 mm0 mm
06:00 17.5 °C 14.4 °C 82 % 7 km/h (10 km/h) 0 mm0 mm
05:54 17.5 °C 14.2 °C 81 % 8 km/h (11 km/h) 0 mm0 mm
05:48 17.6 °C 14.5 °C 82 % 9 km/h (12 km/h) 0 mm0 mm
05:42 17.5 °C 14.4 °C 82 % 9 km/h (12 km/h) 0 mm0 mm
05:36 17.5 °C 14.4 °C 82 % 9 km/h (11 km/h) 0 mm0 mm
05:30 17.6 °C 14.3 °C 81 % 9 km/h (12 km/h) 0 mm0 mm
05:24 17.8 °C 14.3 °C 80 % 8 km/h (12 km/h) 0 mm0 mm
05:18 17.8 °C 14.3 °C 80 % 9 km/h (13 km/h) 0 mm0 mm
05:12 17.8 °C 14.3 °C 80 % 10 km/h (13 km/h) 0 mm0 mm
05:06 17.9 °C 14.2 °C 79 % 9 km/h (12 km/h) 0 mm0 mm
05:00 18.1 °C 14.2 °C 78 % 10 km/h (14 km/h) 0 mm0 mm
04:54 18.3 °C 14.4 °C 78 % 12 km/h (16 km/h) 0 mm0 mm
04:48 18.5 °C 14.4 °C 77 % 13 km/h (16 km/h) 0 mm0 mm
04:42 18.5 °C 14.6 °C 78 % 13 km/h (16 km/h) 0 mm0 mm
04:36 18.5 °C 14.6 °C 78 % 12 km/h (15 km/h) 0 mm0 mm
04:30 18.5 °C 14.4 °C 77 % 13 km/h (17 km/h) 0 mm0 mm
04:24 18.5 °C 14.6 °C 78 % 13 km/h (17 km/h) 0 mm0 mm
04:18 18.4 °C 14.5 °C 78 % 13 km/h (17 km/h) 0 mm0 mm
04:12 18.4 °C 14.5 °C 78 % 13 km/h (15 km/h) 0 mm0 mm
04:06 18.4 °C 14.5 °C 78 % 12 km/h (15 km/h) 0 mm0 mm
04:00 18.4 °C 14.5 °C 78 % 12 km/h (15 km/h) 0 mm0 mm
03:54 18.5 °C 14.6 °C 78 % 12 km/h (15 km/h) 0 mm0 mm
03:48 18.5 °C 14.6 °C 78 % 12 km/h (15 km/h) 0 mm0 mm
03:42 18.3 °C 14.4 °C 78 % 11 km/h (14 km/h) 0 mm0 mm
03:36 18.5 °C 14.4 °C 77 % 12 km/h (15 km/h) 0 mm0 mm
03:30 18.8 °C 14.5 °C 76 % 11 km/h (14 km/h) 0 mm0 mm
03:24 19 °C 14.7 °C 76 % 10 km/h (14 km/h) 0 mm0 mm
03:18 19 °C 14.5 °C 75 % 10 km/h (12 km/h) 0 mm0 mm
03:12 19 °C 14.7 °C 76 % 9 km/h (12 km/h) 0 mm0 mm
03:06 19.1 °C 14.8 °C 76 % 9 km/h (13 km/h) 0 mm0 mm
03:00 18.9 °C 14.6 °C 76 % 9 km/h (13 km/h) 0 mm0 mm
02:54 18.9 °C 14.6 °C 76 % 10 km/h (12 km/h) 0 mm0 mm
02:48 18.9 °C 14.6 °C 76 % 10 km/h (14 km/h) 0 mm0 mm
02:42 19 °C 14.5 °C 75 % 11 km/h (14 km/h) 0 mm0 mm
02:36 19.1 °C 14.6 °C 75 % 11 km/h (14 km/h) 0 mm0 mm
02:30 19.2 °C 14.7 °C 75 % 12 km/h (15 km/h) 0 mm0 mm
02:24 19.2 °C 14.7 °C 75 % 12 km/h (14 km/h) 0 mm0 mm
02:18 19.3 °C 14.8 °C 75 % 11 km/h (14 km/h) 0 mm0 mm
02:12 19.3 °C 14.5 °C 74 % 11 km/h (14 km/h) 0 mm0 mm
02:06 19.3 °C 14.5 °C 74 % 11 km/h (14 km/h) 0 mm0 mm
02:00 19.4 °C 14.6 °C 74 % 10 km/h (12 km/h) 0 mm0 mm
01:54 19.4 °C 14.6 °C 74 % 10 km/h (13 km/h) 0 mm0 mm
01:48 19.5 °C 14.7 °C 74 % 9 km/h (12 km/h) 0 mm0 mm
01:42 19.5 °C 14.5 °C 73 % 9 km/h (11 km/h) 0 mm0 mm
01:36 19.6 °C 14.6 °C 73 % 9 km/h (10 km/h) 0 mm0 mm
01:30 19.6 °C 14.6 °C 73 % 9 km/h (11 km/h) 0 mm0 mm
01:24 19.6 °C 14.6 °C 73 % 9 km/h (11 km/h) 0 mm0 mm
01:18 19.7 °C 14.7 °C 73 % 9 km/h (12 km/h) 0 mm0 mm
01:12 19.7 °C 14.7 °C 73 % 10 km/h (12 km/h) 0 mm0 mm
01:06 19.6 °C 14.6 °C 73 % 10 km/h (13 km/h) 0 mm0 mm
01:00 19.3 °C 14.5 °C 74 % 9 km/h (13 km/h) 0 mm0 mm
00:54 19.1 °C 14.4 °C 74 % 9 km/h (13 km/h) 0 mm0 mm
00:48 19.7 °C 14.5 °C 72 % 10 km/h (13 km/h) 0 mm0 mm
00:42 19.9 °C 14.7 °C 72 % 10 km/h (13 km/h) 0 mm0 mm
00:36 19.6 °C 14.4 °C 72 % 10 km/h (13 km/h) 0 mm0 mm
00:30 20 °C 14.6 °C 71 % 11 km/h (13 km/h) 0 mm0 mm
00:24 20 °C 14.6 °C 71 % 11 km/h (14 km/h) 0 mm0 mm
00:18 20.3 °C 14.6 °C 70 % 12 km/h (15 km/h) 0 mm0 mm
00:12 20.5 °C 14.6 °C 69 % 13 km/h (15 km/h) 0 mm0 mm
00:06 20.3 °C 14.6 °C 70 % 11 km/h (14 km/h) 0 mm0 mm
00:00 19.9 °C 14.5 °C 71 % 9 km/h (12 km/h) 0 mm0 mm

Données via Météo-France

Relevés météo à Blecourt

Cette page rassemble les observations de la station de Blecourt : température, humidité, vent, précipitations et pression atmosphérique. Les graphiques facilitent le suivi de la journée, tandis que le tableau donne accès aux mesures horaires et infra-horaires disponibles.

Pour replacer ces mesures dans leur contexte, consultez la climatologie de Blecourt ainsi que ses normales et records. Retrouvez aussi la carte des observations météo en temps réel.